sensor_id;sensor_type;location;lat;lon;timestamp;P1;durP1;ratioP1;P2;durP2;ratioP2
18867;SDS011;9563;49.240;9.088;2023-08-06T04:00:18;4.30;;;2.33;;
18867;SDS011;9563;49.240;9.088;2023-08-06T04:02:45;6.80;;;2.22;;
18867;SDS011;9563;49.240;9.088;2023-08-06T04:05:13;3.63;;;1.95;;
18867;SDS011;9563;49.240;9.088;2023-08-06T04:07:39;4.97;;;2.08;;
18867;SDS011;9563;49.240;9.088;2023-08-06T04:10:06;3.08;;;1.90;;
18867;SDS011;9563;49.240;9.088;2023-08-06T04:12:33;7.13;;;1.90;;
18867;SDS011;9563;49.240;9.088;2023-08-06T04:15:01;3.60;;;1.60;;
18867;SDS011;9563;49.240;9.088;2023-08-06T04:17:30;5.50;;;2.03;;
18867;SDS011;9563;49.240;9.088;2023-08-06T04:19:57;7.05;;;2.08;;
18867;SDS011;9563;49.240;9.088;2023-08-06T04:22:24;3.90;;;1.70;;
18867;SDS011;9563;49.240;9.088;2023-08-06T04:24:51;10.15;;;2.10;;
18867;SDS011;9563;49.240;9.088;2023-08-06T04:27:18;7.68;;;1.90;;
18867;SDS011;9563;49.240;9.088;2023-08-06T04:29:45;6.45;;;1.83;;
18867;SDS011;9563;49.240;9.088;2023-08-06T04:32:12;5.68;;;2.15;;
18867;SDS011;9563;49.240;9.088;2023-08-06T04:34:41;10.13;;;2.17;;
18867;SDS011;9563;49.240;9.088;2023-08-06T04:37:08;11.23;;;2.08;;
18867;SDS011;9563;49.240;9.088;2023-08-06T04:39:35;9.77;;;1.90;;
18867;SDS011;9563;49.240;9.088;2023-08-06T04:42:02;4.88;;;1.40;;
18867;SDS011;9563;49.240;9.088;2023-08-06T04:44:29;6.53;;;1.63;;
18867;SDS011;9563;49.240;9.088;2023-08-06T04:46:56;7.80;;;1.70;;
18867;SDS011;9563;49.240;9.088;2023-08-06T04:49:22;7.50;;;1.70;;
18867;SDS011;9563;49.240;9.088;2023-08-06T04:51:51;4.85;;;1.45;;
18867;SDS011;9563;49.240;9.088;2023-08-06T04:54:17;8.07;;;1.73;;
18867;SDS011;9563;49.240;9.088;2023-08-06T04:56:44;4.50;;;1.67;;
18867;SDS011;9563;49.240;9.088;2023-08-06T04:59:11;3.13;;;1.50;;
18867;SDS011;9563;49.240;9.088;2023-08-06T05:01:38;9.70;;;2.35;;
18867;SDS011;9563;49.240;9.088;2023-08-06T05:04:05;4.97;;;1.60;;
18867;SDS011;9563;49.240;9.088;2023-08-06T05:06:32;3.38;;;1.60;;
18867;SDS011;9563;49.240;9.088;2023-08-06T05:09:00;6.20;;;1.77;;
18867;SDS011;9563;49.240;9.088;2023-08-06T05:11:27;6.97;;;2.00;;
18867;SDS011;9563;49.240;9.088;2023-08-06T05:13:53;5.35;;;1.33;;
18867;SDS011;9563;49.240;9.088;2023-08-06T05:16:20;7.38;;;1.92;;
18867;SDS011;9563;49.240;9.088;2023-08-06T05:18:47;4.75;;;1.42;;
18867;SDS011;9563;49.240;9.088;2023-08-06T05:21:14;3.67;;;1.30;;
18867;SDS011;9563;49.240;9.088;2023-08-06T05:23:41;3.58;;;1.27;;
18867;SDS011;9563;49.240;9.088;2023-08-06T05:26:09;1.90;;;0.98;;
18867;SDS011;9563;49.240;9.088;2023-08-06T05:28:36;5.68;;;1.48;;
18867;SDS011;9563;49.240;9.088;2023-08-06T05:31:03;2.83;;;1.15;;
18867;SDS011;9563;49.240;9.088;2023-08-06T05:33:30;6.72;;;1.80;;
18867;SDS011;9563;49.240;9.088;2023-08-06T05:35:57;4.65;;;1.48;;
18867;SDS011;9563;49.240;9.088;2023-08-06T05:38:24;6.75;;;1.38;;
18867;SDS011;9563;49.240;9.088;2023-08-06T05:40:51;3.35;;;1.25;;
18867;SDS011;9563;49.240;9.088;2023-08-06T05:43:19;3.75;;;0.90;;
18867;SDS011;9563;49.240;9.088;2023-08-06T05:45:46;5.22;;;1.60;;
18867;SDS011;9563;49.240;9.088;2023-08-06T05:48:15;3.80;;;1.20;;
18867;SDS011;9563;49.240;9.088;2023-08-06T05:50:42;4.63;;;1.05;;
18867;SDS011;9563;49.240;9.088;2023-08-06T05:53:09;6.55;;;1.40;;
18867;SDS011;9563;49.240;9.088;2023-08-06T05:55:36;3.58;;;1.20;;
18867;SDS011;9563;49.240;9.088;2023-08-06T05:58:04;2.53;;;1.05;;
18867;SDS011;9563;49.240;9.088;2023-08-06T06:00:32;6.63;;;1.38;;
18867;SDS011;9563;49.240;9.088;2023-08-06T06:03:00;4.70;;;1.10;;
18867;SDS011;9563;49.240;9.088;2023-08-06T06:05:27;4.25;;;1.20;;
18867;SDS011;9563;49.240;9.088;2023-08-06T06:07:54;4.00;;;1.20;;
18867;SDS011;9563;49.240;9.088;2023-08-06T06:10:21;2.42;;;1.10;;
18867;SDS011;9563;49.240;9.088;2023-08-06T06:12:48;7.75;;;1.40;;
18867;SDS011;9563;49.240;9.088;2023-08-06T06:15:15;4.40;;;0.85;;
18867;SDS011;9563;49.240;9.088;2023-08-06T06:17:43;3.15;;;1.30;;
18867;SDS011;9563;49.240;9.088;2023-08-06T06:20:10;3.80;;;0.95;;
18867;SDS011;9563;49.240;9.088;2023-08-06T06:22:37;4.40;;;1.20;;
18867;SDS011;9563;49.240;9.088;2023-08-06T06:25:04;2.78;;;1.00;;
18867;SDS011;9563;49.240;9.088;2023-08-06T06:27:32;4.18;;;1.00;;
18867;SDS011;9563;49.240;9.088;2023-08-06T06:29:58;5.90;;;1.20;;
18867;SDS011;9563;49.240;9.088;2023-08-06T06:32:25;2.42;;;1.02;;
18867;SDS011;9563;49.240;9.088;2023-08-06T06:34:53;4.85;;;1.08;;
18867;SDS011;9563;49.240;9.088;2023-08-06T06:37:20;7.88;;;1.10;;
18867;SDS011;9563;49.240;9.088;2023-08-06T06:39:47;3.53;;;1.13;;
18867;SDS011;9563;49.240;9.088;2023-08-06T06:42:14;6.75;;;1.45;;
18867;SDS011;9563;49.240;9.088;2023-08-06T06:44:41;4.22;;;0.75;;
18867;SDS011;9563;49.240;9.088;2023-08-06T06:47:08;2.90;;;1.00;;
18867;SDS011;9563;49.240;9.088;2023-08-06T06:49:35;3.17;;;0.73;;
18867;SDS011;9563;49.240;9.088;2023-08-06T06:52:03;3.38;;;0.77;;
18867;SDS011;9563;49.240;9.088;2023-08-06T06:54:31;4.60;;;0.63;;
18867;SDS011;9563;49.240;9.088;2023-08-06T06:56:58;3.75;;;0.80;;
18867;SDS011;9563;49.240;9.088;2023-08-06T06:59:24;2.15;;;0.60;;
18867;SDS011;9563;49.240;9.088;2023-08-06T07:01:52;3.35;;;0.65;;
18867;SDS011;9563;49.240;9.088;2023-08-06T07:04:18;4.47;;;0.65;;
18867;SDS011;9563;49.240;9.088;2023-08-06T07:06:45;3.33;;;0.82;;
18867;SDS011;9563;49.240;9.088;2023-08-06T07:09:14;1.13;;;0.55;;
18867;SDS011;9563;49.240;9.088;2023-08-06T07:11:41;1.20;;;0.77;;
18867;SDS011;9563;49.240;9.088;2023-08-06T07:14:09;4.78;;;0.50;;
18867;SDS011;9563;49.240;9.088;2023-08-06T07:16:36;5.05;;;0.70;;
18867;SDS011;9563;49.240;9.088;2023-08-06T07:19:03;4.07;;;0.80;;
18867;SDS011;9563;49.240;9.088;2023-08-06T07:21:30;3.50;;;0.80;;
18867;SDS011;9563;49.240;9.088;2023-08-06T07:23:57;1.15;;;0.60;;
18867;SDS011;9563;49.240;9.088;2023-08-06T07:26:26;2.20;;;0.57;;
18867;SDS011;9563;49.240;9.088;2023-08-06T07:28:53;0.80;;;0.70;;
18867;SDS011;9563;49.240;9.088;2023-08-06T07:31:20;0.47;;;0.47;;
18867;SDS011;9563;49.240;9.088;2023-08-06T07:33:47;5.90;;;0.60;;
18867;SDS011;9563;49.240;9.088;2023-08-06T07:36:14;1.17;;;0.50;;
18867;SDS011;9563;49.240;9.088;2023-08-06T07:38:41;0.57;;;0.30;;
18867;SDS011;9563;49.240;9.088;2023-08-06T07:41:08;3.25;;;0.43;;
18867;SDS011;9563;49.240;9.088;2023-08-06T07:43:36;1.60;;;0.60;;
18867;SDS011;9563;49.240;9.088;2023-08-06T07:46:03;2.20;;;0.57;;
18867;SDS011;9563;49.240;9.088;2023-08-06T07:48:30;2.05;;;0.52;;
18867;SDS011;9563;49.240;9.088;2023-08-06T07:50:57;2.28;;;0.40;;
18867;SDS011;9563;49.240;9.088;2023-08-06T07:53:25;1.45;;;0.30;;
18867;SDS011;9563;49.240;9.088;2023-08-06T07:55:54;1.70;;;0.38;;
18867;SDS011;9563;49.240;9.088;2023-08-06T07:58:22;0.40;;;0.30;;
18867;SDS011;9563;49.240;9.088;2023-08-06T08:00:52;0.80;;;0.40;;
18867;SDS011;9563;49.240;9.088;2023-08-06T08:03:19;0.50;;;0.38;;
18867;SDS011;9563;49.240;9.088;2023-08-06T08:05:45;2.25;;;0.40;;
18867;SDS011;9563;49.240;9.088;2023-08-06T08:08:12;3.22;;;0.47;;
18867;SDS011;9563;49.240;9.088;2023-08-06T08:10:39;3.05;;;0.40;;
18867;SDS011;9563;49.240;9.088;2023-08-06T08:13:06;2.28;;;0.50;;
18867;SDS011;9563;49.240;9.088;2023-08-06T08:15:34;3.92;;;0.75;;
18867;SDS011;9563;49.240;9.088;2023-08-06T08:18:06;0.68;;;0.40;;
18867;SDS011;9563;49.240;9.088;2023-08-06T08:20:33;5.65;;;0.70;;
18867;SDS011;9563;49.240;9.088;2023-08-06T08:23:00;0.65;;;0.40;;
18867;SDS011;9563;49.240;9.088;2023-08-06T08:25:27;1.60;;;0.60;;
18867;SDS011;9563;49.240;9.088;2023-08-06T08:27:56;2.55;;;0.47;;
18867;SDS011;9563;49.240;9.088;2023-08-06T08:30:23;0.70;;;0.50;;
18867;SDS011;9563;49.240;9.088;2023-08-06T08:32:51;1.30;;;0.55;;
18867;SDS011;9563;49.240;9.088;2023-08-06T08:35:20;2.03;;;0.65;;
18867;SDS011;9563;49.240;9.088;2023-08-06T08:37:47;0.63;;;0.50;;
18867;SDS011;9563;49.240;9.088;2023-08-06T08:40:14;1.58;;;0.32;;
18867;SDS011;9563;49.240;9.088;2023-08-06T08:42:41;1.70;;;0.40;;
18867;SDS011;9563;49.240;9.088;2023-08-06T08:45:11;0.32;;;0.30;;
18867;SDS011;9563;49.240;9.088;2023-08-06T08:47:40;1.85;;;0.40;;
18867;SDS011;9563;49.240;9.088;2023-08-06T08:50:08;0.40;;;0.30;;
18867;SDS011;9563;49.240;9.088;2023-08-06T08:52:38;0.30;;;0.30;;
18867;SDS011;9563;49.240;9.088;2023-08-06T08:55:05;0.32;;;0.32;;
18867;SDS011;9563;49.240;9.088;2023-08-06T08:57:34;0.93;;;0.52;;
18867;SDS011;9563;49.240;9.088;2023-08-06T09:00:00;0.60;;;0.30;;
18867;SDS011;9563;49.240;9.088;2023-08-06T09:02:28;1.40;;;0.30;;
18867;SDS011;9563;49.240;9.088;2023-08-06T09:04:57;1.17;;;0.30;;
18867;SDS011;9563;49.240;9.088;2023-08-06T09:07:27;4.95;;;0.40;;
18867;SDS011;9563;49.240;9.088;2023-08-06T09:09:59;0.98;;;0.30;;
18867;SDS011;9563;49.240;9.088;2023-08-06T09:12:30;0.20;;;0.20;;
18867;SDS011;9563;49.240;9.088;2023-08-06T09:14:57;1.08;;;0.20;;
18867;SDS011;9563;49.240;9.088;2023-08-06T09:17:25;0.30;;;0.30;;
18867;SDS011;9563;49.240;9.088;2023-08-06T09:19:53;1.17;;;0.10;;
18867;SDS011;9563;49.240;9.088;2023-08-06T09:22:20;0.10;;;0.10;;
18867;SDS011;9563;49.240;9.088;2023-08-06T09:24:47;1.48;;;0.17;;
18867;SDS011;9563;49.240;9.088;2023-08-06T09:27:15;0.77;;;0.15;;
18867;SDS011;9563;49.240;9.088;2023-08-06T09:29:44;0.10;;;0.10;;
18867;SDS011;9563;49.240;9.088;2023-08-06T09:32:11;0.32;;;0.15;;
18867;SDS011;9563;49.240;9.088;2023-08-06T09:34:38;0.10;;;0.10;;
18867;SDS011;9563;49.240;9.088;2023-08-06T09:37:07;1.05;;;0.20;;
18867;SDS011;9563;49.240;9.088;2023-08-06T09:39:35;1.00;;;0.40;;
18867;SDS011;9563;49.240;9.088;2023-08-06T09:42:04;2.67;;;0.50;;
18867;SDS011;9563;49.240;9.088;2023-08-06T09:44:33;0.73;;;0.30;;
18867;SDS011;9563;49.240;9.088;2023-08-06T09:47:01;6.55;;;0.70;;
18867;SDS011;9563;49.240;9.088;2023-08-06T09:49:40;0.95;;;0.55;;
18867;SDS011;9563;49.240;9.088;2023-08-06T09:52:11;0.50;;;0.50;;
18867;SDS011;9563;49.240;9.088;2023-08-06T09:54:40;0.68;;;0.40;;
18867;SDS011;9563;49.240;9.088;2023-08-06T09:57:09;2.50;;;0.63;;
18867;SDS011;9563;49.240;9.088;2023-08-06T09:59:39;1.35;;;0.60;;
18867;SDS011;9563;49.240;9.088;2023-08-06T10:02:12;2.67;;;0.50;;
18867;SDS011;9563;49.240;9.088;2023-08-06T10:04:39;0.88;;;0.38;;
18867;SDS011;9563;49.240;9.088;2023-08-06T10:07:08;2.47;;;0.60;;
18867;SDS011;9563;49.240;9.088;2023-08-06T10:09:35;2.38;;;0.38;;
18867;SDS011;9563;49.240;9.088;2023-08-06T10:12:02;0.73;;;0.30;;
18867;SDS011;9563;49.240;9.088;2023-08-06T10:14:30;0.38;;;0.28;;
18867;SDS011;9563;49.240;9.088;2023-08-06T10:17:02;2.60;;;0.25;;
18867;SDS011;9563;49.240;9.088;2023-08-06T10:19:30;0.30;;;0.30;;
18867;SDS011;9563;49.240;9.088;2023-08-06T10:22:10;0.70;;;0.30;;
18867;SDS011;9563;49.240;9.088;2023-08-06T10:24:48;0.40;;;0.30;;
18867;SDS011;9563;49.240;9.088;2023-08-06T10:27:19;0.20;;;0.20;;
18867;SDS011;9563;49.240;9.088;2023-08-06T10:29:47;0.30;;;0.30;;
18867;SDS011;9563;49.240;9.088;2023-08-06T10:32:15;1.80;;;0.40;;
18867;SDS011;9563;49.240;9.088;2023-08-06T10:34:53;0.80;;;0.30;;
18867;SDS011;9563;49.240;9.088;2023-08-06T10:37:29;0.40;;;0.40;;
18867;SDS011;9563;49.240;9.088;2023-08-06T10:40:02;0.20;;;0.20;;
18867;SDS011;9563;49.240;9.088;2023-08-06T10:42:29;2.63;;;0.30;;
18867;SDS011;9563;49.240;9.088;2023-08-06T10:45:15;2.10;;;0.40;;
18867;SDS011;9563;49.240;9.088;2023-08-06T10:47:45;0.55;;;0.40;;
18867;SDS011;9563;49.240;9.088;2023-08-06T10:50:12;0.32;;;0.32;;
18867;SDS011;9563;49.240;9.088;2023-08-06T10:52:41;0.70;;;0.57;;
18867;SDS011;9563;49.240;9.088;2023-08-06T10:55:09;1.20;;;0.60;;
18867;SDS011;9563;49.240;9.088;2023-08-06T10:57:36;1.08;;;0.43;;
18867;SDS011;9563;49.240;9.088;2023-08-06T11:00:05;0.60;;;0.50;;
18867;SDS011;9563;49.240;9.088;2023-08-06T11:02:33;0.60;;;0.50;;
18867;SDS011;9563;49.240;9.088;2023-08-06T11:05:06;0.88;;;0.60;;
18867;SDS011;9563;49.240;9.088;2023-08-06T11:07:33;1.15;;;0.60;;
18867;SDS011;9563;49.240;9.088;2023-08-06T11:10:01;0.60;;;0.60;;
18867;SDS011;9563;49.240;9.088;2023-08-06T11:12:29;0.40;;;0.40;;
18867;SDS011;9563;49.240;9.088;2023-08-06T11:14:56;0.50;;;0.50;;
18867;SDS011;9563;49.240;9.088;2023-08-06T11:17:23;0.60;;;0.60;;
18867;SDS011;9563;49.240;9.088;2023-08-06T11:19:50;0.75;;;0.70;;
18867;SDS011;9563;49.240;9.088;2023-08-06T11:22:20;1.55;;;0.55;;
18867;SDS011;9563;49.240;9.088;2023-08-06T11:24:47;0.75;;;0.70;;
18867;SDS011;9563;49.240;9.088;2023-08-06T11:27:15;0.73;;;0.70;;
18867;SDS011;9563;49.240;9.088;2023-08-06T11:29:42;0.85;;;0.75;;
18867;SDS011;9563;49.240;9.088;2023-08-06T11:32:10;0.77;;;0.70;;
18867;SDS011;9563;49.240;9.088;2023-08-06T11:34:38;1.38;;;0.93;;
18867;SDS011;9563;49.240;9.088;2023-08-06T11:37:06;1.20;;;0.90;;
18867;SDS011;9563;49.240;9.088;2023-08-06T11:39:34;1.23;;;0.80;;
18867;SDS011;9563;49.240;9.088;2023-08-06T11:42:02;2.50;;;1.10;;
18867;SDS011;9563;49.240;9.088;2023-08-06T11:44:31;1.77;;;0.98;;
18867;SDS011;9563;49.240;9.088;2023-08-06T11:46:59;3.15;;;1.40;;
18867;SDS011;9563;49.240;9.088;2023-08-06T11:49:37;7.45;;;1.88;;
18867;SDS011;9563;49.240;9.088;2023-08-06T11:52:09;4.40;;;1.20;;
18867;SDS011;9563;49.240;9.088;2023-08-06T11:54:38;1.25;;;1.10;;
18867;SDS011;9563;49.240;9.088;2023-08-06T11:57:05;4.93;;;1.20;;
18867;SDS011;9563;49.240;9.088;2023-08-06T11:59:32;1.80;;;1.30;;
18867;SDS011;9563;49.240;9.088;2023-08-06T12:02:00;1.33;;;1.00;;
18867;SDS011;9563;49.240;9.088;2023-08-06T12:04:27;2.30;;;1.38;;
18867;SDS011;9563;49.240;9.088;2023-08-06T12:06:54;3.53;;;1.70;;
18867;SDS011;9563;49.240;9.088;2023-08-06T12:09:21;3.40;;;1.63;;
18867;SDS011;9563;49.240;9.088;2023-08-06T12:11:50;5.05;;;1.60;;
18867;SDS011;9563;49.240;9.088;2023-08-06T12:14:17;4.28;;;1.92;;
18867;SDS011;9563;49.240;9.088;2023-08-06T12:16:44;3.15;;;1.65;;
18867;SDS011;9563;49.240;9.088;2023-08-06T12:19:10;2.80;;;1.80;;
18867;SDS011;9563;49.240;9.088;2023-08-06T12:21:37;2.35;;;1.67;;
18867;SDS011;9563;49.240;9.088;2023-08-06T12:24:04;6.30;;;1.90;;
18867;SDS011;9563;49.240;9.088;2023-08-06T12:26:32;8.05;;;2.20;;
18867;SDS011;9563;49.240;9.088;2023-08-06T12:29:00;7.25;;;4.28;;
18867;SDS011;9563;49.240;9.088;2023-08-06T12:31:27;3.90;;;1.98;;
18867;SDS011;9563;49.240;9.088;2023-08-06T12:33:54;3.03;;;2.13;;
18867;SDS011;9563;49.240;9.088;2023-08-06T12:36:21;6.65;;;2.20;;
18867;SDS011;9563;49.240;9.088;2023-08-06T12:38:48;8.23;;;2.30;;
18867;SDS011;9563;49.240;9.088;2023-08-06T12:41:15;7.80;;;2.03;;
18867;SDS011;9563;49.240;9.088;2023-08-06T12:43:42;4.03;;;1.92;;
18867;SDS011;9563;49.240;9.088;2023-08-06T12:46:10;9.35;;;2.45;;
18867;SDS011;9563;49.240;9.088;2023-08-06T12:48:37;5.97;;;2.80;;
18867;SDS011;9563;49.240;9.088;2023-08-06T12:51:04;4.43;;;2.65;;
18867;SDS011;9563;49.240;9.088;2023-08-06T12:53:31;3.70;;;2.53;;
18867;SDS011;9563;49.240;9.088;2023-08-06T12:55:58;5.78;;;2.45;;
18867;SDS011;9563;49.240;9.088;2023-08-06T12:58:28;7.32;;;2.85;;
18867;SDS011;9563;49.240;9.088;2023-08-06T13:00:55;6.43;;;2.40;;
18867;SDS011;9563;49.240;9.088;2023-08-06T13:03:24;5.93;;;2.53;;
18867;SDS011;9563;49.240;9.088;2023-08-06T13:05:51;4.45;;;2.53;;
18867;SDS011;9563;49.240;9.088;2023-08-06T13:08:18;6.18;;;2.45;;
18867;SDS011;9563;49.240;9.088;2023-08-06T13:10:44;5.15;;;2.65;;
18867;SDS011;9563;49.240;9.088;2023-08-06T13:13:11;4.53;;;2.55;;
18867;SDS011;9563;49.240;9.088;2023-08-06T13:15:38;15.43;;;3.35;;
18867;SDS011;9563;49.240;9.088;2023-08-06T13:18:05;3.97;;;2.40;;
18867;SDS011;9563;49.240;9.088;2023-08-06T13:20:34;8.77;;;2.88;;
18867;SDS011;9563;49.240;9.088;2023-08-06T13:23:00;6.28;;;2.78;;
18867;SDS011;9563;49.240;9.088;2023-08-06T13:25:27;6.30;;;2.60;;
18867;SDS011;9563;49.240;9.088;2023-08-06T13:27:54;5.32;;;2.80;;
18867;SDS011;9563;49.240;9.088;2023-08-06T13:30:21;5.35;;;2.50;;
18867;SDS011;9563;49.240;9.088;2023-08-06T13:32:48;4.50;;;2.22;;
18867;SDS011;9563;49.240;9.088;2023-08-06T13:35:15;7.85;;;2.58;;
18867;SDS011;9563;49.240;9.088;2023-08-06T13:37:43;6.03;;;2.50;;
18867;SDS011;9563;49.240;9.088;2023-08-06T13:40:10;4.22;;;2.50;;
18867;SDS011;9563;49.240;9.088;2023-08-06T13:42:37;4.38;;;2.33;;
18867;SDS011;9563;49.240;9.088;2023-08-06T13:45:04;8.75;;;2.20;;
18867;SDS011;9563;49.240;9.088;2023-08-06T13:47:32;4.38;;;2.33;;
18867;SDS011;9563;49.240;9.088;2023-08-06T13:49:59;6.90;;;3.15;;
18867;SDS011;9563;49.240;9.088;2023-08-06T13:52:26;3.95;;;1.60;;
18867;SDS011;9563;49.240;9.088;2023-08-06T13:54:54;5.72;;;1.67;;
18867;SDS011;9563;49.240;9.088;2023-08-06T13:57:21;3.97;;;1.80;;
18867;SDS011;9563;49.240;9.088;2023-08-06T13:59:48;5.15;;;1.55;;
18867;SDS011;9563;49.240;9.088;2023-08-06T14:02:15;2.95;;;1.70;;
18867;SDS011;9563;49.240;9.088;2023-08-06T14:04:42;2.78;;;1.70;;
18867;SDS011;9563;49.240;9.088;2023-08-06T14:07:09;3.30;;;1.48;;
18867;SDS011;9563;49.240;9.088;2023-08-06T14:09:37;2.03;;;1.10;;
18867;SDS011;9563;49.240;9.088;2023-08-06T14:12:07;3.10;;;1.30;;
18867;SDS011;9563;49.240;9.088;2023-08-06T14:14:34;2.80;;;1.40;;
18867;SDS011;9563;49.240;9.088;2023-08-06T14:17:12;3.22;;;1.00;;
18867;SDS011;9563;49.240;9.088;2023-08-06T14:19:40;2.25;;;1.10;;
18867;SDS011;9563;49.240;9.088;2023-08-06T14:22:07;1.42;;;0.95;;
18867;SDS011;9563;49.240;9.088;2023-08-06T14:24:34;2.35;;;1.17;;
18867;SDS011;9563;49.240;9.088;2023-08-06T14:27:01;3.28;;;1.40;;
18867;SDS011;9563;49.240;9.088;2023-08-06T14:29:30;4.35;;;1.17;;
18867;SDS011;9563;49.240;9.088;2023-08-06T14:31:57;3.40;;;1.30;;
18867;SDS011;9563;49.240;9.088;2023-08-06T14:34:24;2.10;;;1.30;;
18867;SDS011;9563;49.240;9.088;2023-08-06T14:36:51;1.52;;;1.17;;
18867;SDS011;9563;49.240;9.088;2023-08-06T14:39:17;1.92;;;1.08;;
18867;SDS011;9563;49.240;9.088;2023-08-06T14:41:44;2.55;;;1.00;;
18867;SDS011;9563;49.240;9.088;2023-08-06T14:44:12;3.30;;;1.15;;
18867;SDS011;9563;49.240;9.088;2023-08-06T14:46:40;2.78;;;1.00;;
18867;SDS011;9563;49.240;9.088;2023-08-06T14:49:07;2.58;;;1.10;;
18867;SDS011;9563;49.240;9.088;2023-08-06T14:51:34;6.50;;;1.23;;
18867;SDS011;9563;49.240;9.088;2023-08-06T14:54:00;3.13;;;0.98;;
18867;SDS011;9563;49.240;9.088;2023-08-06T14:56:27;4.82;;;0.75;;
18867;SDS011;9563;49.240;9.088;2023-08-06T14:58:54;2.08;;;0.98;;
18867;SDS011;9563;49.240;9.088;2023-08-06T15:01:21;1.55;;;0.98;;
18867;SDS011;9563;49.240;9.088;2023-08-06T15:03:49;2.85;;;0.90;;
18867;SDS011;9563;49.240;9.088;2023-08-06T15:06:16;3.97;;;1.45;;
18867;SDS011;9563;49.240;9.088;2023-08-06T15:08:43;1.80;;;1.10;;
18867;SDS011;9563;49.240;9.088;2023-08-06T15:11:12;0.93;;;0.80;;
18867;SDS011;9563;49.240;9.088;2023-08-06T15:13:39;3.97;;;1.02;;
18867;SDS011;9563;49.240;9.088;2023-08-06T15:16:06;1.67;;;0.85;;
18867;SDS011;9563;49.240;9.088;2023-08-06T15:18:33;1.33;;;1.05;;
18867;SDS011;9563;49.240;9.088;2023-08-06T15:21:01;4.82;;;1.00;;
18867;SDS011;9563;49.240;9.088;2023-08-06T15:23:28;3.15;;;0.93;;
18867;SDS011;9563;49.240;9.088;2023-08-06T15:25:55;5.00;;;1.10;;
18867;SDS011;9563;49.240;9.088;2023-08-06T15:28:22;1.08;;;1.00;;
18867;SDS011;9563;49.240;9.088;2023-08-06T15:30:49;2.83;;;1.20;;
18867;SDS011;9563;49.240;9.088;2023-08-06T15:33:17;3.58;;;1.20;;
18867;SDS011;9563;49.240;9.088;2023-08-06T15:35:44;3.22;;;1.30;;
18867;SDS011;9563;49.240;9.088;2023-08-06T15:38:12;7.10;;;1.50;;
18867;SDS011;9563;49.240;9.088;2023-08-06T15:40:39;7.78;;;1.23;;
18867;SDS011;9563;49.240;9.088;2023-08-06T15:43:06;1.65;;;1.05;;
18867;SDS011;9563;49.240;9.088;2023-08-06T15:45:33;5.80;;;1.52;;
18867;SDS011;9563;49.240;9.088;2023-08-06T15:48:00;1.67;;;1.08;;
18867;SDS011;9563;49.240;9.088;2023-08-06T15:50:26;5.03;;;1.58;;
18867;SDS011;9563;49.240;9.088;2023-08-06T15:52:53;2.33;;;1.38;;
18867;SDS011;9563;49.240;9.088;2023-08-06T15:55:22;4.15;;;1.60;;
18867;SDS011;9563;49.240;9.088;2023-08-06T15:57:49;1.92;;;1.20;;
18867;SDS011;9563;49.240;9.088;2023-08-06T16:00:16;3.40;;;1.30;;
18867;SDS011;9563;49.240;9.088;2023-08-06T16:02:43;2.85;;;1.38;;
18867;SDS011;9563;49.240;9.088;2023-08-06T16:05:10;1.48;;;1.30;;
18867;SDS011;9563;49.240;9.088;2023-08-06T16:07:37;2.55;;;1.30;;
18867;SDS011;9563;49.240;9.088;2023-08-06T16:10:04;5.18;;;1.40;;
18867;SDS011;9563;49.240;9.088;2023-08-06T16:12:33;7.10;;;1.38;;
18867;SDS011;9563;49.240;9.088;2023-08-06T16:15:00;2.78;;;1.10;;
18867;SDS011;9563;49.240;9.088;2023-08-06T16:17:27;4.15;;;1.27;;
18867;SDS011;9563;49.240;9.088;2023-08-06T16:19:54;1.85;;;0.75;;
18867;SDS011;9563;49.240;9.088;2023-08-06T16:22:21;1.40;;;1.15;;
18867;SDS011;9563;49.240;9.088;2023-08-06T16:24:48;2.03;;;0.85;;
18867;SDS011;9563;49.240;9.088;2023-08-06T16:27:15;1.65;;;1.02;;
18867;SDS011;9563;49.240;9.088;2023-08-06T16:29:43;1.88;;;1.20;;
18867;SDS011;9563;49.240;9.088;2023-08-06T16:32:11;2.28;;;1.00;;
18867;SDS011;9563;49.240;9.088;2023-08-06T16:34:38;1.60;;;1.00;;
18867;SDS011;9563;49.240;9.088;2023-08-06T16:37:05;1.83;;;0.98;;
18867;SDS011;9563;49.240;9.088;2023-08-06T16:39:31;2.75;;;1.05;;
18867;SDS011;9563;49.240;9.088;2023-08-06T16:41:58;2.17;;;1.02;;
18867;SDS011;9563;49.240;9.088;2023-08-06T16:44:25;4.28;;;1.15;;
18867;SDS011;9563;49.240;9.088;2023-08-06T16:46:56;3.13;;;1.13;;
18867;SDS011;9563;49.240;9.088;2023-08-06T16:49:23;2.95;;;0.90;;
18867;SDS011;9563;49.240;9.088;2023-08-06T16:51:50;3.95;;;1.05;;
18867;SDS011;9563;49.240;9.088;2023-08-06T16:54:17;4.78;;;1.10;;
18867;SDS011;9563;49.240;9.088;2023-08-06T16:56:44;2.47;;;0.80;;
18867;SDS011;9563;49.240;9.088;2023-08-06T16:59:11;3.58;;;1.30;;
18867;SDS011;9563;49.240;9.088;2023-08-06T17:01:38;1.23;;;1.00;;
18867;SDS011;9563;49.240;9.088;2023-08-06T17:04:06;1.10;;;1.00;;
18867;SDS011;9563;49.240;9.088;2023-08-06T17:06:33;1.45;;;0.95;;
18867;SDS011;9563;49.240;9.088;2023-08-06T17:09:00;3.08;;;1.10;;
18867;SDS011;9563;49.240;9.088;2023-08-06T17:11:29;1.42;;;1.00;;
18867;SDS011;9563;49.240;9.088;2023-08-06T17:13:56;2.85;;;1.00;;
18867;SDS011;9563;49.240;9.088;2023-08-06T17:16:24;1.98;;;1.00;;
18867;SDS011;9563;49.240;9.088;2023-08-06T17:18:51;1.27;;;0.77;;
18867;SDS011;9563;49.240;9.088;2023-08-06T17:21:19;1.80;;;0.70;;
18867;SDS011;9563;49.240;9.088;2023-08-06T17:23:46;2.72;;;0.90;;
18867;SDS011;9563;49.240;9.088;2023-08-06T17:26:13;1.88;;;1.10;;
18867;SDS011;9563;49.240;9.088;2023-08-06T17:28:40;2.33;;;1.23;;
18867;SDS011;9563;49.240;9.088;2023-08-06T17:31:06;3.10;;;1.35;;
18867;SDS011;9563;49.240;9.088;2023-08-06T17:33:33;1.90;;;1.08;;
18867;SDS011;9563;49.240;9.088;2023-08-06T17:36:00;1.25;;;1.15;;
18867;SDS011;9563;49.240;9.088;2023-08-06T17:38:29;3.42;;;1.10;;
18867;SDS011;9563;49.240;9.088;2023-08-06T17:40:56;2.63;;;1.20;;
18867;SDS011;9563;49.240;9.088;2023-08-06T17:43:25;2.33;;;1.20;;
18867;SDS011;9563;49.240;9.088;2023-08-06T17:45:52;3.22;;;1.27;;
18867;SDS011;9563;49.240;9.088;2023-08-06T17:48:18;2.83;;;1.30;;
18867;SDS011;9563;49.240;9.088;2023-08-06T17:50:45;1.90;;;1.25;;
18867;SDS011;9563;49.240;9.088;2023-08-06T17:53:13;2.58;;;1.10;;
18867;SDS011;9563;49.240;9.088;2023-08-06T17:55:41;4.72;;;1.45;;
18867;SDS011;9563;49.240;9.088;2023-08-06T17:58:08;2.97;;;1.58;;
18867;SDS011;9563;49.240;9.088;2023-08-06T18:00:35;2.78;;;1.48;;
18867;SDS011;9563;49.240;9.088;2023-08-06T18:03:02;3.72;;;1.55;;
18867;SDS011;9563;49.240;9.088;2023-08-06T18:05:29;2.08;;;1.45;;
18867;SDS011;9563;49.240;9.088;2023-08-06T18:07:58;6.82;;;1.60;;
18867;SDS011;9563;49.240;9.088;2023-08-06T18:10:25;5.05;;;1.38;;
18867;SDS011;9563;49.240;9.088;2023-08-06T18:12:53;4.22;;;1.50;;
18867;SDS011;9563;49.240;9.088;2023-08-06T18:15:21;2.60;;;1.60;;
18867;SDS011;9563;49.240;9.088;2023-08-06T18:17:47;4.72;;;1.58;;
18867;SDS011;9563;49.240;9.088;2023-08-06T18:20:14;2.65;;;1.52;;
18867;SDS011;9563;49.240;9.088;2023-08-06T18:22:41;2.38;;;1.50;;
18867;SDS011;9563;49.240;9.088;2023-08-06T18:25:08;2.38;;;1.30;;
18867;SDS011;9563;49.240;9.088;2023-08-06T18:27:35;1.58;;;1.15;;
18867;SDS011;9563;49.240;9.088;2023-08-06T18:30:05;3.95;;;1.40;;
18867;SDS011;9563;49.240;9.088;2023-08-06T18:32:32;2.38;;;1.40;;
18867;SDS011;9563;49.240;9.088;2023-08-06T18:34:59;3.47;;;1.50;;
18867;SDS011;9563;49.240;9.088;2023-08-06T18:37:26;2.88;;;1.40;;
18867;SDS011;9563;49.240;9.088;2023-08-06T18:39:53;2.42;;;1.30;;
18867;SDS011;9563;49.240;9.088;2023-08-06T18:42:26;1.92;;;1.35;;
18867;SDS011;9563;49.240;9.088;2023-08-06T18:44:53;3.05;;;1.30;;
18867;SDS011;9563;49.240;9.088;2023-08-06T18:47:21;3.92;;;1.42;;
18867;SDS011;9563;49.240;9.088;2023-08-06T18:49:48;3.20;;;1.58;;
18867;SDS011;9563;49.240;9.088;2023-08-06T18:52:15;2.38;;;1.30;;
18867;SDS011;9563;49.240;9.088;2023-08-06T18:54:42;1.75;;;1.20;;
18867;SDS011;9563;49.240;9.088;2023-08-06T18:57:09;3.40;;;1.52;;
18867;SDS011;9563;49.240;9.088;2023-08-06T18:59:36;2.05;;;1.30;;
18867;SDS011;9563;49.240;9.088;2023-08-06T19:02:03;3.50;;;1.40;;